createdAt,value
2023-08-21T00:02:00.351Z,8.32
2023-08-21T00:04:27.825Z,8.57
2023-08-21T00:06:55.285Z,8.25
2023-08-21T00:09:22.725Z,8.50
2023-08-21T00:11:50.268Z,8.15
2023-08-21T00:14:17.755Z,8.95
2023-08-21T00:16:45.185Z,9.13
2023-08-21T00:19:13.312Z,8.70
2023-08-21T00:21:40.809Z,8.35
2023-08-21T00:24:08.323Z,9.23
2023-08-21T00:26:35.761Z,9.75
2023-08-21T00:29:03.273Z,9.98
2023-08-21T00:31:30.625Z,8.90
2023-08-21T00:33:58.131Z,10.10
2023-08-21T00:36:25.546Z,10.25
2023-08-21T00:38:53.023Z,9.85
2023-08-21T00:41:20.626Z,9.40
2023-08-21T00:43:48.184Z,8.73
2023-08-21T00:46:17.072Z,9.00
2023-08-21T00:48:45.746Z,8.95
2023-08-21T00:51:16.776Z,8.57
2023-08-21T00:53:45.704Z,9.38
2023-08-21T00:56:14.801Z,9.18
2023-08-21T00:58:42.819Z,9.35
2023-08-21T01:01:10.428Z,9.43
2023-08-21T01:03:37.984Z,9.82
2023-08-21T01:06:05.482Z,8.88
2023-08-21T01:08:43.715Z,9.45
2023-08-21T01:11:14.305Z,8.85
2023-08-21T01:13:44.859Z,9.00
2023-08-21T01:16:15.198Z,9.38
2023-08-21T01:18:44.531Z,8.07
2023-08-21T01:21:13.185Z,9.02
2023-08-21T01:23:43.518Z,8.20
2023-08-21T01:26:11.137Z,8.38
2023-08-21T01:28:39.041Z,9.50
2023-08-21T01:31:32.386Z,8.80
2023-08-21T01:34:05.584Z,9.57
2023-08-21T01:36:33.701Z,8.35
2023-08-21T01:39:01.253Z,9.63
2023-08-21T01:41:28.733Z,8.48
2023-08-21T01:43:56.216Z,8.18
2023-08-21T01:46:23.832Z,7.95
2023-08-21T01:48:51.300Z,8.15
2023-08-21T01:51:18.794Z,8.38
2023-08-21T01:53:46.274Z,7.72
2023-08-21T01:56:13.727Z,7.57
2023-08-21T01:58:41.388Z,8.00
2023-08-21T02:01:08.875Z,8.52
2023-08-21T02:03:37.094Z,7.68
2023-08-21T02:06:05.002Z,8.98
2023-08-21T02:08:35.037Z,8.40
2023-08-21T02:11:02.905Z,7.90
2023-08-21T02:13:30.520Z,8.38
2023-08-21T02:15:57.964Z,8.55
2023-08-21T02:18:25.523Z,8.88
2023-08-21T02:20:52.928Z,7.80
2023-08-21T02:23:20.442Z,8.05
2023-08-21T02:25:47.930Z,7.53
2023-08-21T02:28:15.389Z,8.20
2023-08-21T02:30:43.226Z,7.68
2023-08-21T02:33:10.746Z,7.43
2023-08-21T02:35:40.103Z,7.82
2023-08-21T02:38:07.538Z,7.45
2023-08-21T02:40:37.332Z,7.63
2023-08-21T02:43:05.787Z,7.55
2023-08-21T02:45:33.263Z,8.13
2023-08-21T02:48:00.836Z,8.10
2023-08-21T02:50:28.332Z,8.10
2023-08-21T02:52:55.916Z,7.50
2023-08-21T02:55:23.421Z,7.82
2023-08-21T02:57:50.861Z,7.50
2023-08-21T03:00:18.558Z,7.70
2023-08-21T03:02:46.086Z,8.10
2023-08-21T03:05:14.444Z,8.63
2023-08-21T03:07:42.351Z,8.07
2023-08-21T03:10:10.274Z,7.30
2023-08-21T03:12:38.154Z,7.78
2023-08-21T03:15:06.927Z,7.95
2023-08-21T03:17:34.409Z,7.47
2023-08-21T03:20:02.255Z,8.13
2023-08-21T03:22:29.880Z,7.65
2023-08-21T03:24:57.373Z,6.97
2023-08-21T03:27:25.910Z,7.18
2023-08-21T03:29:53.394Z,7.80
2023-08-21T03:32:20.919Z,7.65
2023-08-21T03:34:48.559Z,8.07
2023-08-21T03:37:16.076Z,7.95
2023-08-21T03:39:44.339Z,8.45
2023-08-21T03:42:12.651Z,8.02
2023-08-21T03:44:40.949Z,8.23
2023-08-21T03:47:08.945Z,8.18
2023-08-21T03:49:45.446Z,7.97
2023-08-21T03:52:12.930Z,7.90
2023-08-21T03:54:40.348Z,8.48
2023-08-21T03:57:08.437Z,8.02
2023-08-21T03:59:35.812Z,7.72
2023-08-21T04:02:03.265Z,8.30
2023-08-21T04:04:30.761Z,7.75
2023-08-21T04:06:58.174Z,8.48
2023-08-21T04:09:25.653Z,7.57
2023-08-21T04:11:53.056Z,7.10
2023-08-21T04:14:20.460Z,7.63
2023-08-21T04:16:48.710Z,7.70
2023-08-21T04:19:16.069Z,7.78
2023-08-21T04:21:43.512Z,8.00
2023-08-21T04:24:10.951Z,7.35
2023-08-21T04:26:38.441Z,7.38
2023-08-21T04:29:05.965Z,7.30
2023-08-21T04:31:33.819Z,8.05
2023-08-21T04:34:01.356Z,7.82
2023-08-21T04:36:29.300Z,7.63
2023-08-21T04:38:58.171Z,7.47
2023-08-21T04:41:25.572Z,7.45
2023-08-21T04:43:52.941Z,8.60
2023-08-21T04:46:21.148Z,9.50
2023-08-21T04:48:48.999Z,9.77
2023-08-21T04:51:16.992Z,9.10
2023-08-21T04:53:44.857Z,8.98
2023-08-21T04:56:17.060Z,8.18
2023-08-21T04:58:44.921Z,7.88
2023-08-21T05:01:13.321Z,7.60
2023-08-21T05:03:45.364Z,8.48
2023-08-21T05:06:13.243Z,8.40
2023-08-21T05:08:41.002Z,8.70
2023-08-21T05:11:09.772Z,8.88
2023-08-21T05:13:38.764Z,8.15
2023-08-21T05:16:09.755Z,9.05
2023-08-21T05:18:39.139Z,9.60
2023-08-21T05:21:06.566Z,8.48
2023-08-21T05:23:34.079Z,7.95
2023-08-21T05:26:05.584Z,8.75
2023-08-21T05:28:34.378Z,9.48
2023-08-21T05:31:01.855Z,8.82
2023-08-21T05:33:37.372Z,8.52
2023-08-21T05:36:05.889Z,8.75
2023-08-21T05:38:33.833Z,9.13
2023-08-21T05:41:02.124Z,9.15
2023-08-21T05:43:30.032Z,9.57
2023-08-21T05:45:58.794Z,8.35
2023-08-21T05:48:26.307Z,9.63
2023-08-21T05:50:54.056Z,8.82
2023-08-21T05:53:21.886Z,9.02
2023-08-21T05:55:49.551Z,8.63
2023-08-21T05:58:17.161Z,9.02
2023-08-21T06:00:45.565Z,8.57
2023-08-21T06:03:13.193Z,8.77
2023-08-21T06:06:06.887Z,8.65
2023-08-21T06:08:34.375Z,8.07
2023-08-21T06:11:01.876Z,9.68
2023-08-21T06:13:29.532Z,8.88
2023-08-21T06:15:57.711Z,7.97
2023-08-21T06:18:26.629Z,8.85
2023-08-21T06:20:56.367Z,8.13
2023-08-21T06:23:24.136Z,8.00
2023-08-21T06:25:52.162Z,8.25
2023-08-21T06:28:22.202Z,8.60
2023-08-21T06:30:58.283Z,8.88
2023-08-21T06:33:26.391Z,8.15
2023-08-21T06:35:55.771Z,8.88
2023-08-21T06:38:23.155Z,8.40
2023-08-21T06:40:51.792Z,8.75
2023-08-21T06:43:20.102Z,8.00
2023-08-21T06:45:48.666Z,8.73
2023-08-21T06:48:16.144Z,7.95
2023-08-21T06:50:43.635Z,9.02
2023-08-21T06:53:11.010Z,8.38
2023-08-21T06:55:38.422Z,8.77
2023-08-21T06:58:05.852Z,9.52
2023-08-21T07:00:33.402Z,9.27
2023-08-21T07:03:00.967Z,9.55
2023-08-21T07:05:28.424Z,10.02
2023-08-21T07:07:56.433Z,8.05
2023-08-21T07:10:23.877Z,8.63
2023-08-21T07:12:51.288Z,8.70
2023-08-21T07:15:18.789Z,8.70
2023-08-21T07:17:47.300Z,8.27
2023-08-21T07:20:14.724Z,9.13
2023-08-21T07:22:42.132Z,8.82
2023-08-21T07:25:09.845Z,8.13
2023-08-21T07:27:37.351Z,8.68
2023-08-21T07:30:06.250Z,8.30
2023-08-21T07:32:33.990Z,8.75
2023-08-21T07:35:01.490Z,7.88
2023-08-21T07:37:29.002Z,7.50
2023-08-21T07:39:58.910Z,7.95
2023-08-21T07:42:26.402Z,8.18
2023-08-21T07:44:54.013Z,9.05
2023-08-21T07:47:21.438Z,8.25
2023-08-21T07:49:48.880Z,8.35
2023-08-21T07:52:17.235Z,8.50
2023-08-21T07:54:44.674Z,8.48
2023-08-21T07:57:12.299Z,9.02
2023-08-21T07:59:39.754Z,9.00
2023-08-21T08:02:07.104Z,9.68
2023-08-21T08:04:34.460Z,9.75
2023-08-21T08:07:02.398Z,9.43
2023-08-21T08:09:29.927Z,8.02
2023-08-21T08:11:57.717Z,8.13
2023-08-21T08:14:25.088Z,8.52
2023-08-21T08:16:52.830Z,8.70
2023-08-21T08:19:20.352Z,7.90
2023-08-21T08:21:47.780Z,8.55
2023-08-21T08:24:15.227Z,8.25
2023-08-21T08:26:44.118Z,7.97
2023-08-21T08:29:11.581Z,8.38
2023-08-21T08:31:40.253Z,8.15
2023-08-21T08:34:07.728Z,8.07
2023-08-21T08:36:36.001Z,8.50
2023-08-21T08:39:03.696Z,7.85
2023-08-21T08:41:55.268Z,8.55
2023-08-21T08:44:26.112Z,8.07
2023-08-21T08:46:53.825Z,8.32
2023-08-21T08:49:23.184Z,7.55
2023-08-21T08:51:52.556Z,7.93
2023-08-21T08:54:21.731Z,7.95
2023-08-21T08:56:49.933Z,7.95
2023-08-21T08:59:17.624Z,8.25
2023-08-21T09:01:45.119Z,7.53
2023-08-21T09:04:13.069Z,7.95
2023-08-21T09:06:40.646Z,8.40
2023-08-21T09:09:11.603Z,7.78
2023-08-21T09:11:44.489Z,8.13
2023-08-21T09:14:12.777Z,7.32
2023-08-21T09:17:10.248Z,8.90
2023-08-21T09:19:38.063Z,7.93
2023-08-21T09:22:17.556Z,7.85
2023-08-21T09:25:15.079Z,8.23
2023-08-21T09:27:42.676Z,8.27
2023-08-21T09:30:11.210Z,8.95
2023-08-21T09:32:54.711Z,9.15
2023-08-21T09:35:22.970Z,7.80
2023-08-21T09:37:50.960Z,8.25
2023-08-21T09:40:18.689Z,7.68
2023-08-21T09:42:46.462Z,8.63
2023-08-21T09:45:14.245Z,8.27
2023-08-21T09:47:42.540Z,8.00
2023-08-21T09:50:10.678Z,8.27
2023-08-21T09:52:38.512Z,8.30
2023-08-21T09:55:06.969Z,8.32
2023-08-21T09:57:34.960Z,8.18
2023-08-21T10:00:14.557Z,8.48
2023-08-21T10:02:42.875Z,8.45
2023-08-21T10:05:12.204Z,8.27
2023-08-21T10:07:40.245Z,8.40
2023-08-21T10:10:08.668Z,8.60
2023-08-21T10:12:36.506Z,8.40
2023-08-21T10:15:04.829Z,8.27
2023-08-21T10:17:33.391Z,8.30
2023-08-21T10:20:05.136Z,9.07
2023-08-21T10:22:59.037Z,8.43
2023-08-21T10:25:31.718Z,8.95
2023-08-21T10:28:06.157Z,8.82
2023-08-21T10:30:34.145Z,8.55
2023-08-21T10:33:02.219Z,9.75
2023-08-21T10:35:31.629Z,8.98
2023-08-21T10:38:09.526Z,9.50
2023-08-21T10:40:37.559Z,9.18
2023-08-21T10:43:05.559Z,9.07
2023-08-21T10:45:33.337Z,9.15
2023-08-21T10:48:01.619Z,9.32
2023-08-21T10:50:29.336Z,8.82
2023-08-21T10:52:57.030Z,9.02
2023-08-21T10:55:24.772Z,8.68
2023-08-21T10:57:52.598Z,9.48
2023-08-21T11:00:21.621Z,10.18
2023-08-21T11:02:51.382Z,9.20
2023-08-21T11:05:19.285Z,9.40
2023-08-21T11:07:48.019Z,8.77
2023-08-21T11:10:17.582Z,10.23
2023-08-21T11:12:51.281Z,9.50
2023-08-21T11:15:20.971Z,9.40
2023-08-21T11:17:58.210Z,9.15
2023-08-21T11:20:29.688Z,9.57
2023-08-21T11:25:24.970Z,9.60
2023-08-21T11:27:52.852Z,10.63
2023-08-21T11:30:20.528Z,9.52
2023-08-21T11:32:48.247Z,8.68
2023-08-21T11:35:16.221Z,9.52
2023-08-21T11:37:47.328Z,9.70
2023-08-21T11:40:15.860Z,9.88
2023-08-21T11:42:43.717Z,10.00
2023-08-21T11:45:12.270Z,9.50
2023-08-21T11:47:41.701Z,9.63
2023-08-21T11:50:10.969Z,9.57
2023-08-21T11:52:42.450Z,9.23
2023-08-21T11:57:47.361Z,10.07
2023-08-21T12:00:15.298Z,9.15
2023-08-21T12:02:43.062Z,9.02
2023-08-21T12:05:16.834Z,8.80
2023-08-21T12:07:44.604Z,9.93
2023-08-21T12:10:12.424Z,8.80
2023-08-21T12:12:40.187Z,9.10
2023-08-21T12:15:08.944Z,9.65
2023-08-21T12:17:36.896Z,9.63
2023-08-21T12:20:11.686Z,9.75
2023-08-21T12:22:39.692Z,9.00
2023-08-21T12:25:08.383Z,9.23
2023-08-21T12:27:36.515Z,9.07
2023-08-21T12:30:05.043Z,9.18
2023-08-21T12:32:33.079Z,8.63
2023-08-21T12:35:01.371Z,8.63
2023-08-21T12:37:29.106Z,9.45
2023-08-21T12:39:56.864Z,8.90
2023-08-21T12:42:24.588Z,10.07
2023-08-21T12:44:52.372Z,9.57
2023-08-21T12:47:20.102Z,10.18
2023-08-21T12:49:47.873Z,10.23
2023-08-21T12:52:15.581Z,9.80
2023-08-21T12:54:43.471Z,10.10
2023-08-21T12:57:12.647Z,9.32
2023-08-21T12:59:40.382Z,9.35
2023-08-21T13:02:08.992Z,9.95
2023-08-21T13:04:36.832Z,10.00
2023-08-21T13:07:04.817Z,9.00
2023-08-21T13:09:32.723Z,10.25
2023-08-21T13:12:00.547Z,9.52
2023-08-21T13:14:30.742Z,9.60
2023-08-21T13:17:00.092Z,9.98
2023-08-21T13:19:27.902Z,9.27
2023-08-21T13:21:55.648Z,9.75
2023-08-21T13:24:24.055Z,9.55
2023-08-21T13:26:51.926Z,10.43
2023-08-21T13:29:19.743Z,10.05
2023-08-21T13:31:47.598Z,9.60
2023-08-21T13:34:15.255Z,10.45
2023-08-21T13:36:43.064Z,9.50
2023-08-21T13:39:12.202Z,9.43
2023-08-21T13:41:40.030Z,9.70
2023-08-21T13:44:09.823Z,9.40
2023-08-21T13:46:37.867Z,10.10
2023-08-21T13:49:05.572Z,9.90
2023-08-21T13:51:33.279Z,10.43
2023-08-21T13:54:01.083Z,9.57
2023-08-21T13:56:28.747Z,10.23
2023-08-21T13:58:57.544Z,10.05
2023-08-21T14:01:25.361Z,9.38
2023-08-21T14:03:53.280Z,10.32
2023-08-21T14:06:21.312Z,10.13
2023-08-21T14:08:49.141Z,9.52
2023-08-21T14:11:16.990Z,9.77
2023-08-21T14:13:44.630Z,9.80
2023-08-21T14:16:12.489Z,10.15
2023-08-21T14:18:40.247Z,9.82
2023-08-21T14:21:08.223Z,9.73
2023-08-21T14:23:36.125Z,9.55
2023-08-21T14:26:03.985Z,9.98
2023-08-21T14:28:31.720Z,9.82
2023-08-21T14:31:00.633Z,9.18
2023-08-21T14:33:28.601Z,9.95
2023-08-21T14:35:56.380Z,9.85
2023-08-21T14:38:24.185Z,9.65
2023-08-21T14:40:53.511Z,9.13
2023-08-21T14:43:21.322Z,9.68
2023-08-21T14:45:49.216Z,10.68
2023-08-21T14:48:16.942Z,9.68
2023-08-21T14:50:44.732Z,9.60
2023-08-21T14:53:12.502Z,10.15
2023-08-21T14:55:40.162Z,8.95
2023-08-21T14:58:10.559Z,9.20
2023-08-21T15:00:38.334Z,10.13
2023-08-21T15:03:06.201Z,9.65
2023-08-21T15:05:33.974Z,10.05
2023-08-21T15:08:02.598Z,9.57
2023-08-21T15:10:30.347Z,9.75
2023-08-21T15:12:58.227Z,9.35
2023-08-21T15:15:25.973Z,10.20
2023-08-21T15:17:54.044Z,8.88
2023-08-21T15:20:22.293Z,9.70
2023-08-21T15:22:52.257Z,9.50
2023-08-21T15:25:21.590Z,9.52
2023-08-21T15:27:49.449Z,9.27
2023-08-21T15:30:18.502Z,10.43
2023-08-21T15:32:48.460Z,9.57
2023-08-21T15:35:16.784Z,9.65
2023-08-21T15:37:46.378Z,9.27
2023-08-21T15:40:14.308Z,9.15
2023-08-21T15:42:43.167Z,9.00
2023-08-21T15:45:11.225Z,9.10
2023-08-21T15:47:47.113Z,9.20
2023-08-21T15:50:15.321Z,9.57
2023-08-21T15:52:43.050Z,9.00
2023-08-21T15:55:10.776Z,8.77
2023-08-21T15:57:38.526Z,9.57
2023-08-21T16:00:06.833Z,9.20
2023-08-21T16:02:35.351Z,10.00
2023-08-21T16:05:04.679Z,9.38
2023-08-21T16:07:34.152Z,9.45
2023-08-21T16:10:02.546Z,10.45
2023-08-21T16:12:30.424Z,9.88
2023-08-21T16:14:58.239Z,9.60
2023-08-21T16:17:26.031Z,9.80
2023-08-21T16:19:55.892Z,10.25
2023-08-21T16:22:23.933Z,8.70
2023-08-21T16:24:51.708Z,9.00
2023-08-21T16:27:19.470Z,9.60
2023-08-21T16:29:47.197Z,9.07
2023-08-21T16:32:14.920Z,9.23
2023-08-21T16:34:42.639Z,8.93
2023-08-21T16:37:10.298Z,9.25
2023-08-21T16:39:38.033Z,8.98
2023-08-21T16:42:05.877Z,9.15
2023-08-21T16:44:34.728Z,10.00
2023-08-21T16:47:02.748Z,9.38
2023-08-21T16:49:30.457Z,9.52
2023-08-21T16:51:58.205Z,8.98
2023-08-21T16:54:26.181Z,9.10
2023-08-21T16:56:53.931Z,9.27
2023-08-21T16:59:21.630Z,9.20
2023-08-21T17:01:49.309Z,9.23
2023-08-21T17:04:17.102Z,9.77
2023-08-21T17:06:44.908Z,9.20
2023-08-21T17:09:12.868Z,9.02
2023-08-21T17:11:40.908Z,8.77
2023-08-21T17:14:08.638Z,8.73
2023-08-21T17:16:36.368Z,9.38
2023-08-21T17:19:04.095Z,9.35
2023-08-21T17:21:31.920Z,9.32
2023-08-21T17:23:59.597Z,8.38
2023-08-21T17:26:27.288Z,8.15
2023-08-21T17:28:55.091Z,9.57
2023-08-21T17:31:22.960Z,8.90
2023-08-21T17:33:50.809Z,8.20
2023-08-21T17:36:19.560Z,9.00
2023-08-21T17:38:47.234Z,9.65
2023-08-21T17:41:15.095Z,9.38
2023-08-21T17:43:42.852Z,8.75
2023-08-21T17:46:11.245Z,8.32
2023-08-21T17:48:38.973Z,9.80
2023-08-21T17:51:07.687Z,9.55
2023-08-21T17:53:35.387Z,7.78
2023-08-21T17:56:03.156Z,9.02
2023-08-21T17:58:30.841Z,9.80
2023-08-21T18:00:59.437Z,8.38
2023-08-21T18:03:27.508Z,9.18
2023-08-21T18:05:55.246Z,9.13
2023-08-21T18:08:23.320Z,9.30
2023-08-21T18:10:52.321Z,9.32
2023-08-21T18:13:20.470Z,9.23
2023-08-21T18:15:51.616Z,8.85
2023-08-21T18:18:19.405Z,8.95
2023-08-21T18:20:51.226Z,8.75
2023-08-21T18:23:23.702Z,9.32
2023-08-21T18:25:51.648Z,8.75
2023-08-21T18:28:24.165Z,8.98
2023-08-21T18:30:56.441Z,9.07
2023-08-21T18:33:24.874Z,9.10
2023-08-21T18:35:53.820Z,8.32
2023-08-21T18:38:21.906Z,8.32
2023-08-21T18:40:49.685Z,9.18
2023-08-21T18:43:20.843Z,9.50
2023-08-21T18:45:50.054Z,9.02
2023-08-21T18:48:17.834Z,8.90
2023-08-21T18:50:46.240Z,7.97
2023-08-21T18:53:15.356Z,8.90
2023-08-21T18:55:44.370Z,9.13
2023-08-21T18:58:12.787Z,8.85
2023-08-21T19:00:40.662Z,9.55
2023-08-21T19:03:11.629Z,9.43
2023-08-21T19:05:40.099Z,9.30
2023-08-21T19:08:07.781Z,8.90
2023-08-21T19:10:36.924Z,8.57
2023-08-21T19:13:06.893Z,9.35
2023-08-21T19:15:35.202Z,8.65
2023-08-21T19:18:05.228Z,9.82
2023-08-21T19:20:33.394Z,9.52
2023-08-21T19:23:01.708Z,8.77
2023-08-21T19:25:30.024Z,9.30
2023-08-21T19:27:58.365Z,10.18
2023-08-21T19:30:26.179Z,10.00
2023-08-21T19:32:53.889Z,10.57
2023-08-21T19:35:21.707Z,9.88
2023-08-21T19:37:49.485Z,10.15
2023-08-21T19:40:17.234Z,9.35
2023-08-21T19:42:45.065Z,9.75
2023-08-21T19:45:13.960Z,9.85
2023-08-21T19:47:41.921Z,10.10
2023-08-21T19:50:10.164Z,9.45
2023-08-21T19:52:37.864Z,9.80
2023-08-21T19:55:05.773Z,10.73
2023-08-21T19:57:33.455Z,10.52
2023-08-21T20:00:01.234Z,10.40
2023-08-21T20:02:36.049Z,11.20
2023-08-21T20:05:06.090Z,11.13
2023-08-21T20:07:33.781Z,10.25
2023-08-21T20:10:01.525Z,11.30
2023-08-21T20:12:29.315Z,10.35
2023-08-21T20:14:59.850Z,10.68
2023-08-21T20:17:29.637Z,11.00
2023-08-21T20:19:57.170Z,10.88
2023-08-21T20:22:24.650Z,10.73
2023-08-21T20:24:53.180Z,10.15
2023-08-21T20:27:20.598Z,11.27
2023-08-21T20:29:47.980Z,10.48
2023-08-21T20:32:16.101Z,10.73
2023-08-21T20:34:44.567Z,9.70
2023-08-21T20:37:12.270Z,10.35
2023-08-21T20:39:39.977Z,11.23
2023-08-21T20:42:07.744Z,10.98
2023-08-21T20:44:36.391Z,10.48
2023-08-21T20:47:04.484Z,10.93
2023-08-21T20:49:35.957Z,11.00
2023-08-21T20:52:04.515Z,11.80
2023-08-21T20:54:32.745Z,11.50
2023-08-21T20:57:00.409Z,11.02
2023-08-21T20:59:28.130Z,11.38
2023-08-21T21:01:55.896Z,10.63
2023-08-21T21:04:23.743Z,10.20
2023-08-21T21:06:52.534Z,11.10
2023-08-21T21:09:20.345Z,10.38
2023-08-21T21:11:48.097Z,11.02
2023-08-21T21:14:15.759Z,10.48
2023-08-21T21:16:44.575Z,11.18
2023-08-21T21:19:12.306Z,11.48
2023-08-21T21:21:40.048Z,10.40
2023-08-21T21:24:07.822Z,10.77
2023-08-21T21:26:35.548Z,10.73
2023-08-21T21:29:05.826Z,11.60
2023-08-21T21:31:33.705Z,10.65
2023-08-21T21:34:01.513Z,10.70
2023-08-21T21:36:29.266Z,10.73
2023-08-21T21:38:57.106Z,11.35
2023-08-21T21:41:24.837Z,10.60
2023-08-21T21:43:52.510Z,9.93
2023-08-21T21:46:25.387Z,11.55
2023-08-21T21:48:53.233Z,10.73
2023-08-21T21:51:21.539Z,9.75
2023-08-21T21:53:49.246Z,10.70
2023-08-21T21:56:17.054Z,11.43
2023-08-21T21:58:44.855Z,11.10
2023-08-21T22:01:12.554Z,11.75
2023-08-21T22:03:40.435Z,11.32
2023-08-21T22:06:10.077Z,10.98
2023-08-21T22:08:38.010Z,11.52
2023-08-21T22:11:06.145Z,11.20
2023-08-21T22:13:34.209Z,11.23
2023-08-21T22:16:02.372Z,11.02
2023-08-21T22:18:30.289Z,10.77
2023-08-21T22:20:58.066Z,10.98
2023-08-21T22:23:26.053Z,10.85
2023-08-21T22:25:53.742Z,11.10
2023-08-21T22:28:21.422Z,10.85
2023-08-21T22:30:49.142Z,10.60
2023-08-21T22:33:17.017Z,11.07
2023-08-21T22:35:44.788Z,10.90
2023-08-21T22:38:12.502Z,10.43
2023-08-21T22:40:40.266Z,10.88
2023-08-21T22:43:08.025Z,10.75
2023-08-21T22:45:38.924Z,11.07
2023-08-21T22:48:06.958Z,11.57
2023-08-21T22:50:34.688Z,12.32
2023-08-21T22:53:02.417Z,11.88
2023-08-21T22:55:32.321Z,12.10
2023-08-21T22:58:00.128Z,12.48
2023-08-21T23:00:27.989Z,11.38
2023-08-21T23:02:55.693Z,11.63
2023-08-21T23:05:23.557Z,10.95
2023-08-21T23:07:51.321Z,11.55
2023-08-21T23:10:19.050Z,12.32
2023-08-21T23:12:46.723Z,11.48
2023-08-21T23:15:14.436Z,12.25
2023-08-21T23:17:42.379Z,11.73
2023-08-21T23:20:11.012Z,12.00
2023-08-21T23:22:38.701Z,11.50
2023-08-21T23:25:06.875Z,11.20
2023-08-21T23:27:34.642Z,12.43
2023-08-21T23:30:02.339Z,11.50
2023-08-21T23:32:30.146Z,11.95
2023-08-21T23:34:57.973Z,12.05
2023-08-21T23:37:25.852Z,12.40
2023-08-21T23:39:53.608Z,10.88
2023-08-21T23:42:21.337Z,11.60
2023-08-21T23:44:49.129Z,11.40
2023-08-21T23:47:16.900Z,11.73
2023-08-21T23:49:44.643Z,11.77
2023-08-21T23:52:12.402Z,11.20
2023-08-21T23:54:40.124Z,12.32
2023-08-21T23:57:07.831Z,12.80
2023-08-21T23:59:36.221Z,12.50
